Time;durP1;ratioP1;P1;durP2;ratioP2;P2;SDS_P1;SDS_P2;PMS_P1;PMS_P2;Temp;Humidity;BMP_temperature;BMP_pressure;BME280_temperature;BME280_humidity;BME280_pressure;Samples;Min_cycle;Max_cycle;Signal;HPM_P1;HPM_P2
2023/11/30 00:00:10;;;;;;;12.23;8.80;;;;;;;-5.43;100.00;100841.78;5117787;28;20050;-61
2023/11/30 00:02:37;;;;;;;8.90;6.95;;;;;;;-5.28;100.00;100854.16;5114697;28;20028;-65
2023/11/30 00:05:15;;;;;;;11.75;8.02;;;;;;;-5.27;100.00;100870.56;5114739;27;20036;-61
2023/11/30 00:07:41;;;;;;;14.98;8.25;;;;;;;-5.22;100.00;100861.69;5113166;28;20073;-65
2023/11/30 00:10:07;;;;;;;10.00;5.97;;;;;;;-5.28;100.00;100843.78;5116429;27;20039;-63
2023/11/30 00:12:33;;;;;;;8.82;5.95;;;;;;;-5.45;100.00;100805.50;5118511;28;20061;-64
2023/11/30 00:14:59;;;;;;;7.97;7.17;;;;;;;-5.28;100.00;100842.94;5117474;28;20444;-62
2023/11/30 00:17:24;;;;;;;10.10;6.10;;;;;;;-5.25;100.00;100843.66;5114249;28;20040;-63
2023/11/30 00:19:50;;;;;;;9.37;6.83;;;;;;;-5.23;100.00;100849.63;5115615;28;20032;-62
2023/11/30 00:22:16;;;;;;;10.90;7.40;;;;;;;-5.22;100.00;100846.13;5116810;28;20036;-62
2023/11/30 00:24:41;;;;;;;9.23;7.60;;;;;;;-5.34;100.00;100831.88;5114148;28;20118;-62
2023/11/30 00:27:07;;;;;;;9.17;6.40;;;;;;;-5.22;100.00;100837.47;5114295;28;20043;-61
2023/11/30 00:29:32;;;;;;;9.73;6.60;;;;;;;-5.22;100.00;100832.28;5113460;28;20402;-62
2023/11/30 00:31:58;;;;;;;9.90;6.73;;;;;;;-5.39;100.00;100805.25;5114700;28;20031;-63
2023/11/30 00:34:24;;;;;;;8.70;6.47;;;;;;;-5.28;100.00;100832.53;5114073;28;20071;-62
2023/11/30 00:36:49;;;;;;;9.33;6.70;;;;;;;-5.45;100.00;100789.94;5114342;28;20126;-62
2023/11/30 00:39:15;;;;;;;9.77;6.83;;;;;;;-5.40;100.00;100792.34;5114465;28;20463;-64
2023/11/30 00:41:40;;;;;;;9.13;6.30;;;;;;;-5.26;100.00;100809.97;5112917;28;20513;-64
2023/11/30 00:44:06;;;;;;;12.57;7.87;;;;;;;-5.35;100.00;100788.66;5113843;28;20128;-64
2023/11/30 00:46:31;;;;;;;8.30;6.93;;;;;;;-5.19;100.00;100816.63;5113362;28;20046;-64
2023/11/30 00:48:57;;;;;;;11.37;6.97;;;;;;;-5.17;100.00;100814.81;5113467;28;20039;-62
2023/11/30 00:51:22;;;;;;;8.90;6.57;;;;;;;-5.17;100.00;100814.81;5113514;28;20043;-64
2023/11/30 00:53:48;;;;;;;8.60;6.60;;;;;;;-5.27;100.00;100805.69;5112534;28;20027;-61
2023/11/30 00:56:14;;;;;;;8.07;6.27;;;;;;;-5.34;100.00;100785.16;5113666;28;20116;-63
2023/11/30 00:58:39;;;;;;;9.43;6.90;;;;;;;-5.52;100.00;100749.53;5113678;28;20036;-62
2023/11/30 01:01:05;;;;;;;8.33;6.33;;;;;;;-5.30;100.00;100768.56;5113761;28;20031;-66
2023/11/30 01:03:30;;;;;;;7.53;6.50;;;;;;;-5.07;100.00;100790.16;5114659;28;20047;-64
2023/11/30 01:05:56;;;;;;;9.23;6.57;;;;;;;-5.11;100.00;100773.00;5112788;28;20134;-63
2023/11/30 01:08:21;;;;;;;10.13;6.73;;;;;;;-5.17;100.00;100757.69;5114078;28;20423;-63
2023/11/30 01:10:47;;;;;;;8.27;6.23;;;;;;;-5.22;100.00;100750.06;5113629;28;20439;-63
2023/11/30 01:13:13;;;;;;;8.03;5.90;;;;;;;-5.06;100.00;100765.88;5112219;28;20126;-64
2023/11/30 01:15:38;;;;;;;9.60;6.47;;;;;;;-5.11;100.00;100766.06;5113333;28;20069;-62
2023/11/30 01:18:04;;;;;;;9.60;7.90;;;;;;;-5.04;100.00;100787.41;5113181;28;20040;-62
2023/11/30 01:20:32;;;;;;;10.60;6.17;;;;;;;-5.23;100.00;100726.75;5111978;28;20037;-63
2023/11/30 01:22:58;;;;;;;11.52;7.75;;;;;;;-5.23;100.00;100737.16;5111855;28;20071;-63
2023/11/30 01:25:24;;;;;;;11.18;6.93;;;;;;;-5.49;100.00;100688.91;5112887;28;20046;-63
2023/11/30 01:27:51;;;;;;;9.33;7.43;;;;;;;-5.20;100.00;100731.84;5113161;28;20437;-63
2023/11/30 01:30:18;;;;;;;8.95;6.45;;;;;;;-5.17;100.00;100748.16;5113049;28;20032;-64
2023/11/30 01:32:44;;;;;;;9.63;7.43;;;;;;;-5.15;100.00;100745.47;5112789;28;20572;-62
2023/11/30 01:35:10;;;;;;;9.87;7.00;;;;;;;-5.23;100.00;100721.56;5112619;28;20039;-61
2023/11/30 01:37:36;;;;;;;10.85;7.50;;;;;;;-6.04;100.00;100585.69;5112831;28;20118;-64
2023/11/30 01:40:02;;;;;;;9.95;6.85;;;;;;;-5.15;100.00;100728.16;5112869;28;20051;-62
2023/11/30 01:42:29;;;;;;;9.30;7.03;;;;;;;-5.13;100.00;100725.50;5112715;28;20028;-63
2023/11/30 01:44:54;;;;;;;9.73;7.40;;;;;;;-5.05;100.00;100746.78;5111422;28;20081;-64
2023/11/30 01:47:20;;;;;;;9.17;7.17;;;;;;;-5.11;100.00;100747.03;5112813;28;20036;-64
2023/11/30 01:49:46;;;;;;;11.90;7.80;;;;;;;-5.17;100.00;100747.28;5112691;28;20042;-64
2023/11/30 01:52:11;;;;;;;9.67;7.40;;;;;;;-5.22;100.00;100718.06;5112755;28;20035;-64
2023/11/30 01:54:37;;;;;;;8.73;6.90;;;;;;;-5.21;100.00;100719.75;5111336;28;20036;-64
2023/11/30 01:57:04;;;;;;;9.88;7.65;;;;;;;-5.10;100.00;100727.94;5112367;28;20119;-62
2023/11/30 01:59:29;;;;;;;10.30;7.70;;;;;;;-4.96;100.00;100748.97;5111944;28;20039;-63
2023/11/30 02:01:55;;;;;;;11.03;8.60;;;;;;;-4.96;100.00;100745.53;5112206;27;20344;-64
2023/11/30 02:04:30;;;;;;;9.80;7.57;;;;;;;-4.96;100.00;100746.38;5112516;28;20060;-63
2023/11/30 02:06:55;;;;;;;9.82;7.13;;;;;;;-5.08;100.00;100726.13;5112146;28;20051;-61
2023/11/30 02:09:21;;;;;;;9.30;6.90;;;;;;;-4.97;100.00;100736.06;5112046;28;20031;-67
2023/11/30 02:11:47;;;;;;;10.43;8.13;;;;;;;-4.92;100.00;100737.53;5112171;28;20034;-64
2023/11/30 02:14:12;;;;;;;9.77;6.60;;;;;;;-5.10;100.00;100707.19;5112050;28;20035;-65
2023/11/30 02:16:38;;;;;;;12.20;7.90;;;;;;;-4.88;100.00;100733.94;5111843;28;20031;-63
2023/11/30 02:19:04;;;;;;;11.10;7.93;;;;;;;-4.86;100.00;100721.72;5111870;28;20486;-61
2023/11/30 02:21:29;;;;;;;10.03;8.03;;;;;;;-4.83;100.00;100731.97;5112124;28;20036;-62
2023/11/30 02:23:55;;;;;;;10.30;7.30;;;;;;;-4.99;100.00;100699.75;5112093;28;20036;-62
2023/11/30 02:26:21;;;;;;;10.83;7.67;;;;;;;-4.80;100.00;100721.44;5111947;28;20035;-64
2023/11/30 02:28:46;;;;;;;9.27;7.17;;;;;;;-4.91;100.00;100689.91;5112035;28;20147;-64
2023/11/30 02:31:12;;;;;;;11.13;8.63;;;;;;;-4.78;100.00;100713.59;5111626;28;20101;-63
2023/11/30 02:33:37;;;;;;;10.00;7.27;;;;;;;-4.76;100.00;100704.81;5111599;28;20088;-61
2023/11/30 02:36:03;;;;;;;12.17;8.40;;;;;;;-4.75;100.00;100703.91;5112317;28;20035;-61
2023/11/30 02:38:29;;;;;;;9.52;7.85;;;;;;;-4.86;100.00;100685.34;5111946;28;20040;-64
2023/11/30 02:40:54;;;;;;;12.43;9.10;;;;;;;-4.95;100.00;100675.34;5112053;28;20088;-62
2023/11/30 02:43:20;;;;;;;11.97;8.47;;;;;;;-4.90;100.00;100678.63;5111910;28;20032;-63
2023/11/30 02:45:46;;;;;;;12.23;7.87;;;;;;;-4.82;100.00;100691.25;5111753;28;20061;-63
2023/11/30 02:48:11;;;;;;;10.73;8.57;;;;;;;-4.84;100.00;100686.13;5111611;28;20047;-63
2023/11/30 02:50:37;;;;;;;15.03;7.83;;;;;;;-4.81;100.00;100698.97;5111726;28;20039;-62
2023/11/30 02:53:02;;;;;;;11.10;8.23;;;;;;;-4.86;100.00;100687.09;5111612;28;20126;-64
2023/11/30 02:55:28;;;;;;;10.90;8.63;;;;;;;-4.97;100.00;100661.59;5111784;28;20043;-64
2023/11/30 02:57:54;;;;;;;11.97;8.70;;;;;;;-5.08;100.00;100643.03;5111748;28;20035;-63
2023/11/30 03:00:19;;;;;;;13.33;8.53;;;;;;;-4.83;100.00;100690.41;5110297;28;20344;-65
2023/11/30 03:02:46;;;;;;;11.10;7.73;;;;;;;-4.85;100.00;100681.00;5111394;28;20063;-62
2023/11/30 03:05:11;;;;;;;10.50;8.27;;;;;;;-4.87;100.00;100665.47;5112069;28;20036;-64
2023/11/30 03:07:37;;;;;;;10.57;7.97;;;;;;;-4.74;100.00;100677.00;5111567;28;20039;-63
2023/11/30 03:10:03;;;;;;;10.50;8.13;;;;;;;-4.72;100.00;100676.94;5112303;28;20550;-64
2023/11/30 03:12:29;;;;;;;12.57;8.70;;;;;;;-4.88;100.00;100644.78;5115768;28;20076;-66
2023/11/30 03:14:55;;;;;;;9.90;7.80;;;;;;;-4.71;100.00;100679.47;5115578;28;20031;-69
2023/11/30 03:17:20;;;;;;;13.40;8.10;;;;;;;-4.86;100.00;100638.59;5116977;28;20039;-61
2023/11/30 03:19:46;;;;;;;12.33;8.30;;;;;;;-4.79;100.00;100640.00;5116462;28;20031;-65
2023/11/30 03:22:11;;;;;;;12.40;7.57;;;;;;;-4.83;100.00;100622.88;5115696;28;20116;-61
2023/11/30 03:24:37;;;;;;;15.13;8.27;;;;;;;-4.58;100.00;100668.56;5115410;28;20387;-63
2023/11/30 03:27:03;;;;;;;12.33;8.83;;;;;;;-4.57;100.00;100665.88;5115212;28;20066;-64
2023/11/30 03:29:29;;;;;;;12.00;9.18;;;;;;;-4.56;100.00;100662.38;5115448;28;20062;-61
2023/11/30 03:31:54;;;;;;;12.40;8.47;;;;;;;-4.52;100.00;100665.66;5115065;28;20149;-63
2023/11/30 03:34:20;;;;;;;11.70;8.37;;;;;;;-4.60;100.00;100659.97;5115501;28;20467;-63
2023/11/30 03:36:45;;;;;;;11.93;8.57;;;;;;;-4.53;100.00;100666.56;5115228;28;20423;-62
2023/11/30 03:39:11;;;;;;;12.57;8.37;;;;;;;-4.54;100.00;100659.69;5115118;28;20031;-63
2023/11/30 03:41:36;;;;;;;13.13;9.03;;;;;;;-4.54;100.00;100668.34;5113902;28;20149;-63
2023/11/30 03:44:02;;;;;;;10.60;8.90;;;;;;;-4.71;100.00;100630.09;5115031;27;20047;-65
2023/11/30 03:46:28;;;;;;;12.27;8.70;;;;;;;-4.70;100.00;100628.34;5114604;28;20039;-65
2023/11/30 03:48:54;;;;;;;11.63;8.73;;;;;;;-4.96;100.00;100582.75;5114996;28;20035;-64
2023/11/30 03:51:20;;;;;;;15.35;11.25;;;;;;;-4.52;100.00;100642.28;5114923;28;20480;-63
2023/11/30 03:53:46;;;;;;;13.47;9.37;;;;;;;-4.52;100.00;100634.47;5114964;28;20067;-62
2023/11/30 03:56:12;;;;;;;18.17;10.67;;;;;;;-4.56;100.00;100622.53;5114835;28;20035;-63
2023/11/30 03:58:37;;;;;;;15.48;10.77;;;;;;;-4.50;100.00;100637.84;5114043;28;20040;-63
2023/11/30 04:01:04;;;;;;;15.37;10.67;;;;;;;-4.82;100.00;100585.59;5114225;28;20035;-64
2023/11/30 04:03:31;;;;;;;12.88;8.77;;;;;;;-4.58;100.00;100616.56;5114524;28;20063;-65
2023/11/30 04:05:56;;;;;;;15.13;10.20;;;;;;;-4.58;100.00;100617.41;5111064;28;20051;-63
2023/11/30 04:08:22;;;;;;;13.60;9.87;;;;;;;-4.68;100.00;100600.53;5114581;27;20490;-63
2023/11/30 04:10:48;;;;;;;14.17;10.53;;;;;;;-4.49;100.00;100635.19;5114748;27;20080;-64
2023/11/30 04:13:13;;;;;;;15.53;11.57;;;;;;;-4.67;100.00;100584.88;5114617;28;20032;-64
2023/11/30 04:15:39;;;;;;;16.43;10.20;;;;;;;-4.50;100.00;100617.06;5114606;28;20114;-63
2023/11/30 04:18:05;;;;;;;13.83;10.57;;;;;;;-4.48;100.00;100612.63;5112639;28;20470;-60
2023/11/30 04:20:30;;;;;;;18.50;10.70;;;;;;;-4.47;100.00;100615.16;5114445;28;20031;-63
2023/11/30 04:22:56;;;;;;;14.83;9.97;;;;;;;-4.39;100.00;100617.38;5113257;28;20116;-64
2023/11/30 04:25:22;;;;;;;15.47;11.00;;;;;;;-4.41;100.00;100608.81;5114199;28;20035;-67
2023/11/30 04:27:48;;;;;;;17.10;11.65;;;;;;;-4.55;100.00;100604.28;5113035;28;20167;-66
2023/11/30 04:30:15;;;;;;;18.30;12.33;;;;;;;-4.81;100.00;100558.69;5112858;28;20486;-65
2023/11/30 04:32:41;;;;;;;16.48;11.05;;;;;;;-4.55;100.00;100586.09;5112947;28;20028;-66
2023/11/30 04:35:07;;;;;;;16.47;12.03;;;;;;;-4.62;100.00;100565.66;5114143;28;20043;-66
2023/11/30 04:37:32;;;;;;;17.63;11.87;;;;;;;-4.34;100.00;100605.00;5114132;28;20036;-68
2023/11/30 04:40:06;;;;;;;18.00;12.60;;;;;;;-4.39;100.00;100591.38;5113990;28;20693;-69
2023/11/30 04:42:35;;;;;;;19.20;12.43;;;;;;;-4.56;100.00;100562.75;5112244;28;20046;-66
2023/11/30 04:45:00;;;;;;;17.52;11.20;;;;;;;-4.28;100.00;100594.34;5112196;28;20044;-67
2023/11/30 04:47:28;;;;;;;18.10;12.20;;;;;;;-4.23;100.00;100599.31;5112267;28;20040;-66
2023/11/30 04:49:54;;;;;;;19.20;12.77;;;;;;;-4.23;100.00;100594.97;5113589;28;20176;-69
2023/11/30 04:52:19;;;;;;;18.30;12.67;;;;;;;-4.23;100.00;100588.94;5113746;27;20130;-66
2023/11/30 04:54:45;;;;;;;19.37;15.23;;;;;;;-4.38;100.00;100577.47;5113759;28;20031;-65
2023/11/30 04:57:11;;;;;;;20.63;13.47;;;;;;;-4.38;100.00;100564.47;5112963;28;20084;-69
2023/11/30 04:59:37;;;;;;;19.73;13.90;;;;;;;-4.44;100.00;100556.97;5113343;28;20047;-67
2023/11/30 05:02:03;;;;;;;23.55;14.88;;;;;;;-4.17;100.00;100586.03;5113178;28;20394;-69
2023/11/30 05:04:31;;;;;;;19.27;13.37;;;;;;;-4.16;100.00;100583.34;5111900;28;20058;-66
2023/11/30 05:06:56;;;;;;;20.83;12.77;;;;;;;-4.14;100.00;100591.91;5111565;28;20039;-66
2023/11/30 05:09:22;;;;;;;19.70;13.33;;;;;;;-4.25;100.00;100557.78;5112798;28;20539;-66
2023/11/30 05:11:47;;;;;;;21.70;14.27;;;;;;;-4.19;100.00;100562.69;5109879;28;20390;-65
2023/11/30 05:14:13;;;;;;;17.67;13.10;;;;;;;-4.11;100.00;100552.75;5112914;28;20032;-66
2023/11/30 05:16:39;;;;;;;19.10;12.67;;;;;;;-4.14;100.00;100560.72;5112857;28;20081;-66
2023/11/30 05:19:04;;;;;;;19.33;14.43;;;;;;;-5.18;100.00;100387.34;5112743;28;20097;-66
2023/11/30 05:21:30;;;;;;;24.03;14.00;;;;;;;-4.09;100.00;100573.50;5112791;28;20042;-65
2023/11/30 05:23:55;;;;;;;20.03;13.33;;;;;;;-4.42;100.00;100511.81;5112921;28;20489;-71
2023/11/30 05:26:21;;;;;;;18.57;13.23;;;;;;;-4.39;100.00;100503.84;5112360;28;20079;-67
2023/11/30 05:28:47;;;;;;;26.17;14.83;;;;;;;-4.05;100.00;100556.81;5111542;28;20027;-67
2023/11/30 05:31:12;;;;;;;21.70;14.73;;;;;;;-4.08;100.00;100562.16;5112613;28;20034;-65
2023/11/30 05:33:38;;;;;;;21.77;13.10;;;;;;;-4.52;100.00;100475.94;5112685;27;20051;-64
2023/11/30 05:36:04;;;;;;;22.03;13.93;;;;;;;-4.19;100.00;100531.50;5110876;28;20118;-68
2023/11/30 05:38:29;;;;;;;20.90;13.68;;;;;;;-4.13;100.00;100541.59;5111166;28;20058;-68
2023/11/30 05:40:56;;;;;;;19.47;13.43;;;;;;;-4.01;100.00;100560.13;5112677;28;20502;-68
2023/11/30 05:43:21;;;;;;;20.05;12.23;;;;;;;-4.11;100.00;100544.94;5114035;28;20035;-65
2023/11/30 05:45:47;;;;;;;23.23;14.67;;;;;;;-4.37;100.00;100502.00;5111759;28;20046;-65
2023/11/30 05:48:12;;;;;;;21.97;15.90;;;;;;;-4.16;100.00;100541.75;5117923;28;20054;-64
2023/11/30 05:50:38;;;;;;;19.23;12.43;;;;;;;-4.41;100.00;100453.69;5121207;28;20032;-67
2023/11/30 05:53:05;;;;;;;19.10;12.97;;;;;;;-3.95;100.00;100554.63;5117490;28;20592;-68
2023/11/30 05:55:30;;;;;;;22.85;14.00;;;;;;;-3.99;100.00;100563.50;5112794;28;20035;-68
2023/11/30 05:57:56;;;;;;;23.93;14.50;;;;;;;-3.97;100.00;100535.66;5112451;28;20036;-65
2023/11/30 06:00:22;;;;;;;21.77;14.20;;;;;;;-3.95;100.00;100544.22;5112290;28;20031;-65
2023/11/30 06:02:48;;;;;;;22.97;14.57;;;;;;;-3.97;100.00;100546.06;5111159;28;20047;-69
2023/11/30 06:05:14;;;;;;;23.17;14.40;;;;;;;-4.26;100.00;100506.72;5111735;28;20046;-66
2023/11/30 06:07:44;;;;;;;21.10;14.35;;;;;;;-3.96;100.00;100540.78;5111555;28;20050;-64
2023/11/30 06:10:10;;;;;;;19.40;13.60;;;;;;;-4.03;100.00;100526.41;5105431;28;20035;-67
2023/11/30 06:12:38;;;;;;;20.55;13.13;;;;;;;-4.08;100.00;100516.19;5111550;28;20031;-65
2023/11/30 06:15:04;;;;;;;20.38;12.68;;;;;;;-3.94;100.00;100531.13;5111455;28;20108;-67
2023/11/30 06:17:31;;;;;;;21.63;15.10;;;;;;;-4.01;100.00;100528.91;5111634;28;20425;-66
2023/11/30 06:19:56;;;;;;;20.93;12.57;;;;;;;-4.04;100.00;100508.25;5111241;28;20035;-67
2023/11/30 06:22:22;;;;;;;20.23;13.17;;;;;;;-3.99;100.00;100511.47;5111230;28;20157;-66
2023/11/30 06:24:47;;;;;;;24.23;13.73;;;;;;;-3.86;100.00;100533.34;5109979;28;20064;-66
2023/11/30 06:27:13;;;;;;;19.77;13.37;;;;;;;-4.01;100.00;100508.09;5111057;28;20051;-68
2023/11/30 06:29:38;;;;;;;19.73;14.63;;;;;;;-4.09;100.00;100496.31;5111427;28;20043;-66
2023/11/30 06:32:04;;;;;;;21.03;12.90;;;;;;;-3.95;100.00;100521.66;5111130;28;20035;-67
2023/11/30 06:34:30;;;;;;;22.23;15.25;;;;;;;-3.99;100.00;100501.06;5111046;28;20134;-64
2023/11/30 06:36:56;;;;;;;25.40;15.30;;;;;;;-3.94;100.00;100535.50;5109487;28;20126;-67
2023/11/30 06:39:22;;;;;;;19.60;13.17;;;;;;;-4.23;100.00;100477.13;5111046;28;20035;-67
2023/11/30 06:41:48;;;;;;;19.73;12.95;;;;;;;-4.08;100.00;100499.75;5111050;28;20449;-66
2023/11/30 06:44:14;;;;;;;17.88;13.85;;;;;;;-4.24;100.00;100475.44;5110283;28;20077;-66
2023/11/30 06:46:42;;;;;;;17.13;11.27;;;;;;;-4.96;100.00;100346.41;5115802;28;20107;-65
2023/11/30 06:49:09;;;;;;;19.40;12.80;;;;;;;-3.94;100.00;100514.69;5115392;28;20036;-66
2023/11/30 06:51:34;;;;;;;20.92;13.45;;;;;;;-4.19;100.00;100474.28;5115128;28;20418;-68
2023/11/30 06:54:00;;;;;;;20.10;12.67;;;;;;;-3.89;100.00;100523.09;5115097;28;20035;-66
2023/11/30 06:56:25;;;;;;;21.83;12.97;;;;;;;-3.99;100.00;100501.91;5115189;28;20498;-67
2023/11/30 06:58:51;;;;;;;18.47;11.67;;;;;;;-3.99;100.00;100480.25;5115353;28;20027;-68
2023/11/30 07:01:17;;;;;;;21.23;12.03;;;;;;;-3.81;100.00;100526.13;5115083;28;20046;-67
2023/11/30 07:03:45;;;;;;;19.53;12.53;;;;;;;-3.83;100.00;100504.56;5116076;28;20406;-67
2023/11/30 07:06:11;;;;;;;17.38;12.93;;;;;;;-4.21;100.00;100444.06;5115763;28;20040;-67
2023/11/30 07:08:36;;;;;;;16.63;12.10;;;;;;;-3.79;100.00;100498.28;5115471;28;20038;-66
2023/11/30 07:11:06;;;;;;;16.77;11.30;;;;;;;-3.81;100.00;100510.53;5115624;28;20138;-65
2023/11/30 07:13:32;;;;;;;17.85;11.57;;;;;;;-3.80;100.00;100494.00;5115376;28;20031;-68
2023/11/30 07:15:57;;;;;;;20.17;12.70;;;;;;;-3.73;100.00;100518.81;5115230;28;20038;-68
2023/11/30 07:18:23;;;;;;;15.13;10.67;;;;;;;-3.73;100.00;100508.41;5115325;28;20394;-67
2023/11/30 07:20:48;;;;;;;15.33;10.53;;;;;;;-3.76;100.00;100487.72;5114816;28;20593;-67
2023/11/30 07:23:14;;;;;;;18.60;11.77;;;;;;;-3.61;100.00;100505.16;5114650;28;20081;-67
2023/11/30 07:25:39;;;;;;;16.50;11.17;;;;;;;-3.77;100.00;100484.28;5114691;28;20089;-68
2023/11/30 07:28:05;;;;;;;16.00;11.60;;;;;;;-3.54;100.00;100511.72;5114370;28;20064;-65
2023/11/30 07:30:30;;;;;;;15.17;10.53;;;;;;;-3.64;100.00;100484.50;5114532;28;20032;-67
2023/11/30 07:32:56;;;;;;;15.77;10.63;;;;;;;-3.47;100.00;100504.44;5114462;28;20032;-72
2023/11/30 07:35:22;;;;;;;14.87;10.03;;;;;;;-3.51;100.00;100493.34;5114352;28;20491;-66
2023/11/30 07:37:48;;;;;;;15.73;10.43;;;;;;;-3.51;100.00;100482.94;5114251;27;20118;-69
2023/11/30 07:40:18;;;;;;;15.33;10.27;;;;;;;-3.42;100.00;100499.84;5114337;28;20134;-69
2023/11/30 07:42:43;;;;;;;14.40;9.80;;;;;;;-3.74;100.00;100444.28;5114767;28;20084;-67
2023/11/30 07:45:10;;;;;;;10.60;9.07;;;;;;;-3.58;100.00;100470.31;5114019;28;20134;-68
2023/11/30 07:47:36;;;;;;;13.00;9.85;;;;;;;-3.31;100.00;100514.91;5111779;28;20042;-66
2023/11/30 07:50:01;;;;;;;17.07;10.77;;;;;;;-4.15;100.00;100374.38;5114363;28;20032;-67
2023/11/30 07:52:34;;;;;;;15.25;10.48;;;;;;;-3.60;100.00;100467.78;5114254;28;20036;-67
2023/11/30 07:55:02;;;;;;;14.57;10.10;;;;;;;-3.35;100.00;100513.38;5114532;28;20035;-70
2023/11/30 07:57:29;;;;;;;14.65;9.65;;;;;;;-3.44;100.00;100505.13;5114515;28;20551;-66
2023/11/30 07:59:55;;;;;;;12.97;9.03;;;;;;;-4.01;100.00;100404.91;5114193;28;20073;-67
2023/11/30 08:02:21;;;;;;;14.40;9.10;;;;;;;-3.45;100.00;100502.63;5113888;28;20054;-67
2023/11/30 08:04:46;;;;;;;13.27;9.33;;;;;;;-3.77;100.00;100447.00;5113845;28;20142;-68
2023/11/30 08:07:12;;;;;;;13.40;9.43;;;;;;;-3.40;100.00;100500.59;5114016;28;20035;-65
2023/11/30 08:09:38;;;;;;;12.33;8.47;;;;;;;-3.46;100.00;100490.53;5114287;28;20039;-68
2023/11/30 08:12:03;;;;;;;14.90;8.90;;;;;;;-3.41;100.00;100500.69;5113866;28;20164;-69
2023/11/30 08:14:31;;;;;;;12.60;9.20;;;;;;;-3.40;100.00;100502.38;5112568;28;20028;-66
2023/11/30 08:16:58;;;;;;;10.48;8.73;;;;;;;-3.33;100.00;100506.31;5108562;28;20076;-67
2023/11/30 08:19:23;;;;;;;11.02;8.07;;;;;;;-3.39;100.00;100481.47;5113806;28;20061;-69
2023/11/30 08:21:49;;;;;;;10.73;8.17;;;;;;;-3.44;100.00;100471.28;5114309;28;20061;-69
2023/11/30 08:24:14;;;;;;;12.63;8.77;;;;;;;-3.36;100.00;100486.50;5113895;28;20454;-67
2023/11/30 08:26:41;;;;;;;10.43;8.90;;;;;;;-3.49;100.00;100473.28;5114421;28;20059;-69
2023/11/30 08:29:08;;;;;;;11.75;9.02;;;;;;;-3.55;100.00;100457.97;5115741;28;20506;-71
2023/11/30 08:31:36;;;;;;;11.05;8.13;;;;;;;-3.40;100.00;100464.16;5116656;28;20035;-68
2023/11/30 08:34:02;;;;;;;15.25;8.43;;;;;;;-3.34;100.00;100473.41;5114311;28;20467;-65
2023/11/30 08:36:28;;;;;;;10.70;7.82;;;;;;;-3.67;100.00;100403.97;5114011;28;20123;-66
2023/11/30 08:38:53;;;;;;;10.23;7.60;;;;;;;-3.34;100.00;100471.63;5114668;28;20442;-70
2023/11/30 08:41:20;;;;;;;9.57;6.90;;;;;;;-3.86;100.00;100383.28;5114794;28;20028;-68
2023/11/30 08:43:46;;;;;;;9.63;7.35;;;;;;;-3.26;100.00;100466.00;5113396;28;20371;-70
2023/11/30 08:46:12;;;;;;;11.30;7.50;;;;;;;-4.08;100.00;100330.69;5113543;27;20043;-65
2023/11/30 08:48:37;;;;;;;9.43;7.25;;;;;;;-3.40;100.00;100417.28;5113653;28;20515;-65
2023/11/30 08:51:04;;;;;;;11.43;7.33;;;;;;;-3.05;100.00;100459.66;5113470;28;20122;-64
2023/11/30 08:53:29;;;;;;;10.23;8.27;;;;;;;-3.02;100.00;100471.66;5094261;28;20049;-66
2023/11/30 08:55:55;;;;;;;11.67;7.87;;;;;;;-3.27;100.00;100418.28;5113395;28;20414;-65
2023/11/30 08:58:20;;;;;;;11.17;7.60;;;;;;;-3.03;100.00;100463.00;5113197;28;20044;-67
2023/11/30 09:00:46;;;;;;;9.40;7.67;;;;;;;-3.11;100.00;100433.94;5111790;28;20050;-67
2023/11/30 09:03:12;;;;;;;9.17;7.13;;;;;;;-3.12;100.00;100416.63;5111309;28;20515;-69
2023/11/30 09:05:37;;;;;;;9.23;6.70;;;;;;;-2.97;100.00;100431.41;5112740;28;20038;-72
2023/11/30 09:08:03;;;;;;;9.33;7.43;;;;;;;-2.93;100.00;100425.09;5112457;28;20034;-68
2023/11/30 09:10:29;;;;;;;9.57;7.00;;;;;;;-3.03;100.00;100404.84;5113142;28;20027;-69
2023/11/30 09:12:55;;;;;;;10.55;6.80;;;;;;;-3.04;100.00;100417.03;5113025;28;20036;-70
2023/11/30 09:15:21;;;;;;;8.77;7.27;;;;;;;-3.13;100.00;100396.72;5112801;28;20043;-67
2023/11/30 09:17:46;;;;;;;9.77;7.40;;;;;;;-3.20;100.00;100371.91;5112675;28;20061;-67
2023/11/30 09:20:12;;;;;;;12.03;8.00;;;;;;;-2.96;100.00;100401.81;5112705;28;20486;-65
2023/11/30 09:22:38;;;;;;;9.63;7.73;;;;;;;-2.90;100.00;100411.88;5112674;28;20042;-66
2023/11/30 09:25:05;;;;;;;10.65;7.93;;;;;;;-2.88;100.00;100414.44;5113031;28;20118;-68
2023/11/30 09:27:32;;;;;;;9.48;7.20;;;;;;;-3.25;100.00;100333.09;5111287;28;20048;-70
2023/11/30 09:29:59;;;;;;;8.55;6.78;;;;;;;-2.81;100.00;100400.97;5112172;27;20063;-67
2023/11/30 09:32:24;;;;;;;10.80;8.43;;;;;;;-2.76;100.00;100392.06;5112437;28;20513;-68
2023/11/30 09:34:50;;;;;;;11.07;7.50;;;;;;;-2.75;100.00;100393.72;5112937;28;20410;-69
2023/11/30 09:37:15;;;;;;;8.63;6.23;;;;;;;-2.78;100.00;100388.69;5114410;28;20465;-68
2023/11/30 09:39:42;;;;;;;10.27;6.93;;;;;;;-2.68;100.00;100384.63;5113761;28;20487;-70
2023/11/30 09:42:09;;;;;;;10.30;7.55;;;;;;;-2.80;100.00;100362.72;5109780;28;20036;-71
2023/11/30 09:44:35;;;;;;;9.48;7.53;;;;;;;-3.05;100.00;100307.72;5112058;28;20047;-69
2023/11/30 09:47:01;;;;;;;9.35;7.07;;;;;;;-2.74;100.00;100354.53;5111962;28;20036;-69
2023/11/30 09:49:27;;;;;;;10.38;7.80;;;;;;;-2.60;100.00;100382.44;5112206;28;20046;-69
2023/11/30 09:51:53;;;;;;;9.20;7.00;;;;;;;-2.64;100.00;100365.28;5112445;28;20031;-70
2023/11/30 09:54:19;;;;;;;12.27;8.60;;;;;;;-2.79;100.00;100332.28;5112420;28;20492;-69
2023/11/30 09:56:45;;;;;;;10.13;6.33;;;;;;;-2.59;100.00;100352.84;5112183;28;20039;-66
2023/11/30 09:59:14;;;;;;;12.77;8.00;;;;;;;-2.65;100.00;100371.41;5111670;28;20072;-67
2023/11/30 10:01:40;;;;;;;8.98;6.32;;;;;;;-2.69;100.00;100373.34;5111831;28;20038;-68
2023/11/30 10:04:17;;;;;;;11.18;8.55;;;;;;;-2.69;100.00;100368.16;5110060;28;20484;-70
2023/11/30 10:06:47;;;;;;;8.65;7.20;;;;;;;-2.88;100.00;100347.53;5110779;28;20040;-65
2023/11/30 10:09:13;;;;;;;9.38;6.60;;;;;;;-2.75;100.00;100367.66;5111516;28;20032;-68
2023/11/30 10:11:40;;;;;;;10.52;6.45;;;;;;;-3.14;100.00;100304.72;5110695;28;20131;-68
2023/11/30 10:14:07;;;;;;;9.85;6.43;;;;;;;-2.92;100.00;100330.38;5111782;28;20039;-68
2023/11/30 10:16:34;;;;;;;9.40;6.60;;;;;;;-3.05;100.00;100310.31;5111156;28;20035;-66
2023/11/30 10:19:01;;;;;;;10.68;6.65;;;;;;;-2.79;100.00;100356.59;5113542;28;20132;-69
2023/11/30 10:21:27;;;;;;;8.82;6.85;;;;;;;-2.81;100.00;100348.00;5111209;28;20032;-68
2023/11/30 10:23:53;;;;;;;8.60;6.73;;;;;;;-2.82;100.00;100336.75;5114147;28;20038;-68
2023/11/30 10:26:22;;;;;;;10.07;7.20;;;;;;;-2.78;100.00;100339.19;5114014;28;20038;-67
2023/11/30 10:28:53;;;;;;;8.35;6.32;;;;;;;-2.73;100.00;100340.59;5115632;28;20178;-70
2023/11/30 10:31:22;;;;;;;9.85;6.38;;;;;;;-2.78;100.00;100349.59;5117452;28;20039;-68
2023/11/30 10:33:58;;;;;;;7.20;5.57;;;;;;;-2.96;100.00;100323.66;5114929;28;20035;-70
2023/11/30 10:36:28;;;;;;;13.70;6.35;;;;;;;-2.90;100.00;100343.31;5113888;28;20423;-68
2023/11/30 10:39:12;;;;;;;7.72;6.28;;;;;;;-2.99;100.00;100323.00;5112950;28;20088;-68
2023/11/30 10:41:55;;;;;;;8.35;5.85;;;;;;;-3.03;100.00;100330.16;5112919;28;20038;-69
2023/11/30 10:44:31;;;;;;;9.20;7.20;;;;;;;-2.97;100.00;100337.59;5112291;28;20040;-70
2023/11/30 10:46:58;;;;;;;8.77;6.07;;;;;;;-2.97;100.00;100329.78;5111066;28;20043;-68
2023/11/30 10:49:27;;;;;;;11.00;7.20;;;;;;;-2.88;100.00;100333.66;5112085;28;20036;-71
2023/11/30 10:51:58;;;;;;;7.65;6.22;;;;;;;-2.98;100.00;100304.66;5111946;28;20100;-66
2023/11/30 10:54:34;;;;;;;8.75;6.57;;;;;;;-2.98;100.00;100314.25;5111842;28;20088;-68
2023/11/30 10:57:00;;;;;;;8.27;6.10;;;;;;;-2.99;100.00;100312.56;5111353;28;20036;-69
2023/11/30 10:59:30;;;;;;;10.32;6.10;;;;;;;-2.92;100.00;100330.38;5112116;28;20067;-66
2023/11/30 11:01:56;;;;;;;9.95;6.07;;;;;;;-3.35;100.00;100264.25;5112617;28;20035;-68
2023/11/30 11:04:24;;;;;;;31.73;8.25;;;;;;;-3.15;100.00;100312.63;5092802;28;20442;-65